createdAt,value
2022-12-29T00:00:25.435Z,23.07
2022-12-29T00:02:53.221Z,21.90
2022-12-29T00:05:21.006Z,21.07
2022-12-29T00:07:50.072Z,21.63
2022-12-29T00:10:17.825Z,20.67
2022-12-29T00:13:09.525Z,25.83
2022-12-29T00:15:41.153Z,21.67
2022-12-29T00:18:10.142Z,25.03
2022-12-29T00:20:55.517Z,22.73
2022-12-29T00:23:42.129Z,23.50
2022-12-29T00:26:31.096Z,18.80
2022-12-29T00:29:16.151Z,21.17
2022-12-29T00:32:01.030Z,20.90
2022-12-29T00:34:51.403Z,20.77
2022-12-29T00:37:39.140Z,20.87
2022-12-29T00:40:26.615Z,24.57
2022-12-29T00:43:11.561Z,25.77
2022-12-29T00:45:41.743Z,25.37
2022-12-29T00:48:09.436Z,29.10
2022-12-29T00:50:36.144Z,27.03
2022-12-29T00:53:03.902Z,33.23
2022-12-29T00:55:32.892Z,28.80
2022-12-29T00:58:01.272Z,27.20
2022-12-29T01:00:29.060Z,22.63
2022-12-29T01:02:56.845Z,30.00
2022-12-29T01:05:24.524Z,24.80
2022-12-29T01:07:52.246Z,25.97
2022-12-29T01:10:18.914Z,25.70
2022-12-29T01:12:48.469Z,22.07
2022-12-29T01:15:16.526Z,21.87
2022-12-29T01:17:44.679Z,25.33
2022-12-29T01:20:12.902Z,19.63
2022-12-29T01:22:40.919Z,16.73
2022-12-29T01:25:08.956Z,19.20
2022-12-29T01:27:36.672Z,17.30
2022-12-29T01:30:06.332Z,17.70
2022-12-29T01:32:34.900Z,23.63
2022-12-29T01:35:02.554Z,18.23
2022-12-29T01:37:30.265Z,17.97
2022-12-29T01:39:57.971Z,19.03
2022-12-29T01:42:27.097Z,22.07
2022-12-29T01:44:56.494Z,19.57
2022-12-29T01:47:31.824Z,18.40
2022-12-29T01:50:01.305Z,18.97
2022-12-29T01:52:31.749Z,16.33
2022-12-29T01:55:00.184Z,16.83
2022-12-29T01:57:29.467Z,19.83
2022-12-29T01:59:58.682Z,19.10
2022-12-29T02:02:26.697Z,18.73
2022-12-29T02:05:01.399Z,18.03
2022-12-29T02:07:32.050Z,18.33
2022-12-29T02:10:00.408Z,18.03
2022-12-29T02:12:28.035Z,16.27
2022-12-29T02:14:57.661Z,16.83
2022-12-29T02:17:32.710Z,19.50
2022-12-29T02:20:17.218Z,15.03
2022-12-29T02:22:51.096Z,21.03
2022-12-29T02:25:31.294Z,15.17
2022-12-29T02:28:13.793Z,18.70
2022-12-29T02:30:48.392Z,19.40
2022-12-29T02:33:22.632Z,17.23
2022-12-29T02:35:54.525Z,16.93
2022-12-29T02:38:25.879Z,17.90
2022-12-29T02:40:56.017Z,19.73
2022-12-29T02:43:26.709Z,18.07
2022-12-29T02:45:57.250Z,23.23
2022-12-29T02:48:27.794Z,19.33
2022-12-29T02:50:59.939Z,15.97
2022-12-29T02:53:42.562Z,18.67
2022-12-29T02:56:10.243Z,22.93
2022-12-29T02:58:37.979Z,20.70
2022-12-29T03:01:12.255Z,21.40
2022-12-29T03:03:47.278Z,19.73
2022-12-29T03:06:19.896Z,19.70
2022-12-29T03:08:51.608Z,17.27
2022-12-29T03:11:36.947Z,18.73
2022-12-29T03:14:26.976Z,17.53
2022-12-29T03:16:58.404Z,19.03
2022-12-29T03:19:28.685Z,19.53
2022-12-29T03:22:15.282Z,21.73
2022-12-29T03:24:45.467Z,18.70
2022-12-29T03:27:16.419Z,20.73
2022-12-29T03:29:48.540Z,19.77
2022-12-29T03:32:18.680Z,21.37
2022-12-29T03:34:46.756Z,20.23
2022-12-29T03:37:17.134Z,23.90
2022-12-29T03:39:46.017Z,26.30
2022-12-29T03:42:15.224Z,21.73
2022-12-29T03:44:44.266Z,21.57
2022-12-29T03:47:12.651Z,22.33
2022-12-29T03:49:41.666Z,23.63
2022-12-29T03:52:09.317Z,29.40
2022-12-29T03:54:39.152Z,27.00
2022-12-29T03:57:06.761Z,30.93
2022-12-29T03:59:34.989Z,28.60
2022-12-29T04:02:02.921Z,28.60
2022-12-29T04:04:30.637Z,29.57
2022-12-29T04:06:59.890Z,30.43
2022-12-29T04:09:27.674Z,29.07
2022-12-29T04:11:55.314Z,30.00
2022-12-29T04:14:22.938Z,29.17
2022-12-29T04:16:57.487Z,30.00
2022-12-29T04:19:29.096Z,26.37
2022-12-29T04:21:56.746Z,25.77
2022-12-29T04:24:25.888Z,26.10
2022-12-29T04:26:53.555Z,21.77
2022-12-29T04:29:21.264Z,25.17
2022-12-29T04:31:49.005Z,22.40
2022-12-29T04:34:16.743Z,22.50
2022-12-29T04:36:46.255Z,20.50
2022-12-29T04:39:13.923Z,25.20
2022-12-29T04:41:43.137Z,21.30
2022-12-29T04:44:10.807Z,20.30
2022-12-29T04:46:38.615Z,20.37
2022-12-29T04:49:09.711Z,19.00
2022-12-29T04:51:37.571Z,15.97
2022-12-29T04:54:05.360Z,24.20
2022-12-29T04:56:33.063Z,20.07
2022-12-29T04:59:02.059Z,19.83
2022-12-29T05:01:29.805Z,15.97
2022-12-29T05:03:57.665Z,19.83
2022-12-29T05:06:25.355Z,19.63
2022-12-29T05:08:52.991Z,18.80
2022-12-29T05:11:20.681Z,19.93
2022-12-29T05:13:48.329Z,22.90
2022-12-29T05:16:17.457Z,21.33
2022-12-29T05:18:45.203Z,22.30
2022-12-29T05:21:13.255Z,24.27
2022-12-29T05:23:40.888Z,24.13
2022-12-29T05:26:08.576Z,22.73
2022-12-29T05:28:36.189Z,22.57
2022-12-29T05:31:04.047Z,21.80
2022-12-29T05:33:33.405Z,22.97
2022-12-29T05:36:05.864Z,22.67
2022-12-29T05:38:33.542Z,24.97
2022-12-29T05:41:01.167Z,24.60
2022-12-29T05:43:28.843Z,20.10
2022-12-29T05:45:57.184Z,22.97
2022-12-29T05:48:24.827Z,25.07
2022-12-29T05:50:53.997Z,24.70
2022-12-29T05:53:21.721Z,28.17
2022-12-29T05:55:49.666Z,24.27
2022-12-29T05:58:17.675Z,23.23
2022-12-29T06:00:45.520Z,24.77
2022-12-29T06:03:13.472Z,21.77
2022-12-29T06:05:41.214Z,23.37
2022-12-29T06:08:10.270Z,20.23
2022-12-29T06:10:37.900Z,25.90
2022-12-29T06:13:06.609Z,23.20
2022-12-29T06:15:35.193Z,23.00
2022-12-29T06:18:03.445Z,24.80
2022-12-29T06:20:31.191Z,28.77
2022-12-29T06:22:58.910Z,31.47
2022-12-29T06:25:27.912Z,26.37
2022-12-29T06:27:55.548Z,32.10
2022-12-29T06:30:23.289Z,28.70
2022-12-29T06:32:50.988Z,29.43
2022-12-29T06:35:18.920Z,30.03
2022-12-29T06:37:46.607Z,31.37
2022-12-29T06:40:14.548Z,31.50
2022-12-29T06:42:43.542Z,31.03
2022-12-29T06:45:11.656Z,27.93
2022-12-29T06:47:39.294Z,31.93
2022-12-29T06:50:07.707Z,29.30
2022-12-29T06:52:35.393Z,30.13
2022-12-29T06:55:03.031Z,25.10
2022-12-29T06:57:30.782Z,28.57
2022-12-29T06:59:59.818Z,29.53
2022-12-29T07:02:27.548Z,32.43
2022-12-29T07:04:55.368Z,28.03
2022-12-29T07:07:23.058Z,28.30
2022-12-29T07:09:50.713Z,26.47
2022-12-29T07:12:18.422Z,23.53
2022-12-29T07:14:46.239Z,27.80
2022-12-29T07:17:15.310Z,26.73
2022-12-29T07:19:43.528Z,27.00
2022-12-29T07:22:11.991Z,26.23
2022-12-29T07:24:39.672Z,27.13
2022-12-29T07:27:07.360Z,26.20
2022-12-29T07:29:35.012Z,26.53
2022-12-29T07:32:02.753Z,28.63
2022-12-29T07:34:31.887Z,27.70
2022-12-29T07:36:59.552Z,26.47
2022-12-29T07:39:27.219Z,30.03
2022-12-29T07:42:01.055Z,29.27
2022-12-29T07:44:32.074Z,28.10
2022-12-29T07:46:59.885Z,27.97
2022-12-29T07:49:28.213Z,28.77
2022-12-29T07:51:57.250Z,28.10
2022-12-29T07:54:24.974Z,26.40
2022-12-29T07:56:52.904Z,30.67
2022-12-29T07:59:20.545Z,26.13
2022-12-29T08:01:48.490Z,27.63
2022-12-29T08:04:16.400Z,30.17
2022-12-29T08:06:44.099Z,41.57
2022-12-29T08:09:19.631Z,38.57
2022-12-29T08:11:49.855Z,34.50
2022-12-29T08:14:17.689Z,35.17
2022-12-29T08:16:45.344Z,33.23
2022-12-29T08:19:13.544Z,36.80
2022-12-29T08:21:41.242Z,32.57
2022-12-29T08:24:10.154Z,28.93
2022-12-29T08:26:39.181Z,29.20
2022-12-29T08:29:07.005Z,33.80
2022-12-29T08:31:34.703Z,34.60
2022-12-29T08:34:04.319Z,34.23
2022-12-29T08:36:32.345Z,31.97
2022-12-29T08:39:00.018Z,33.07
2022-12-29T08:41:27.694Z,32.33
2022-12-29T08:43:56.736Z,33.50
2022-12-29T08:46:24.621Z,30.90
2022-12-29T08:48:52.381Z,32.87
2022-12-29T08:51:24.494Z,33.77
2022-12-29T08:53:52.770Z,32.77
2022-12-29T08:56:20.479Z,31.10
2022-12-29T08:58:48.323Z,36.73
2022-12-29T09:01:17.551Z,31.13
2022-12-29T09:04:13.369Z,35.20
2022-12-29T09:06:39.698Z,36.47
2022-12-29T09:09:08.236Z,32.93
2022-12-29T09:11:35.905Z,31.63
2022-12-29T09:14:03.546Z,33.10
2022-12-29T09:16:32.741Z,32.23
2022-12-29T09:19:00.504Z,26.90
2022-12-29T09:21:28.323Z,31.33
2022-12-29T09:23:55.956Z,33.27
2022-12-29T09:26:23.601Z,29.57
2022-12-29T09:28:51.301Z,32.53
2022-12-29T09:31:19.153Z,30.97
2022-12-29T09:33:48.166Z,35.80
2022-12-29T09:36:16.007Z,31.37
2022-12-29T09:38:43.687Z,28.07
2022-12-29T09:41:15.112Z,29.77
2022-12-29T09:43:53.973Z,25.47
2022-12-29T09:46:26.259Z,25.27
2022-12-29T09:48:59.143Z,28.57
2022-12-29T09:51:27.645Z,27.73
2022-12-29T09:53:57.671Z,25.90
2022-12-29T09:56:26.709Z,25.63
2022-12-29T09:58:56.600Z,26.87
2022-12-29T10:01:29.051Z,28.87
2022-12-29T10:03:59.261Z,27.10
2022-12-29T10:06:28.046Z,27.17
2022-12-29T10:09:00.031Z,25.77
2022-12-29T10:11:36.220Z,31.80
2022-12-29T10:14:14.058Z,23.30
2022-12-29T10:16:48.695Z,28.43
2022-12-29T10:19:32.892Z,28.20
2022-12-29T10:22:06.300Z,24.00
2022-12-29T10:24:34.623Z,24.70
2022-12-29T10:27:02.318Z,26.27
2022-12-29T10:29:34.851Z,22.20
2022-12-29T10:32:05.170Z,26.57
2022-12-29T10:34:38.403Z,21.77
2022-12-29T10:37:07.452Z,27.43
2022-12-29T10:39:38.215Z,25.47
2022-12-29T10:42:10.970Z,28.90
2022-12-29T10:44:39.123Z,25.43
2022-12-29T10:47:08.069Z,25.37
2022-12-29T10:49:39.344Z,24.20
2022-12-29T10:52:07.365Z,28.00
2022-12-29T10:54:38.461Z,30.27
2022-12-29T10:57:09.938Z,25.03
2022-12-29T10:59:38.491Z,28.77
2022-12-29T11:02:18.619Z,27.20
2022-12-29T11:04:55.209Z,21.30
2022-12-29T11:07:27.107Z,27.27
2022-12-29T11:09:55.675Z,26.90
2022-12-29T11:12:25.079Z,25.93
2022-12-29T11:15:14.098Z,30.43
2022-12-29T11:17:46.171Z,26.93
2022-12-29T11:20:28.657Z,33.37
2022-12-29T11:22:58.100Z,30.07
2022-12-29T11:25:25.839Z,27.30
2022-12-29T11:28:00.742Z,28.73
2022-12-29T11:30:29.863Z,30.53
2022-12-29T11:32:57.840Z,33.70
2022-12-29T11:35:32.527Z,29.23
2022-12-29T11:38:02.139Z,28.60
2022-12-29T11:40:29.896Z,26.77
2022-12-29T11:42:58.908Z,32.73
2022-12-29T11:45:27.516Z,27.63
2022-12-29T11:47:56.409Z,28.87
2022-12-29T11:50:25.435Z,23.70
2022-12-29T11:52:59.859Z,26.10
2022-12-29T11:55:29.332Z,24.80
2022-12-29T11:57:59.396Z,30.37
2022-12-29T12:00:28.187Z,24.13
2022-12-29T12:02:58.383Z,29.77
2022-12-29T12:05:31.571Z,27.83
2022-12-29T12:08:01.840Z,26.73
2022-12-29T12:10:32.545Z,25.60
2022-12-29T12:13:08.157Z,28.60
2022-12-29T12:15:45.428Z,19.23
2022-12-29T12:18:18.810Z,29.27
2022-12-29T12:20:48.310Z,24.03
2022-12-29T12:23:22.196Z,26.90
2022-12-29T12:25:55.304Z,34.63
2022-12-29T12:28:33.170Z,26.23
2022-12-29T12:31:06.216Z,28.50
2022-12-29T12:33:36.406Z,27.10
2022-12-29T12:36:15.952Z,28.83
2022-12-29T12:38:47.535Z,29.43
2022-12-29T12:41:22.267Z,29.43
2022-12-29T12:43:52.342Z,28.40
2022-12-29T12:46:27.652Z,26.97
2022-12-29T12:49:08.856Z,20.43
2022-12-29T12:51:40.223Z,23.07
2022-12-29T12:54:15.806Z,22.30
2022-12-29T12:56:49.649Z,23.97
2022-12-29T12:59:22.065Z,30.17
2022-12-29T13:01:54.232Z,26.20
2022-12-29T13:04:31.711Z,23.43
2022-12-29T13:07:03.138Z,25.80
2022-12-29T13:09:35.775Z,26.20
2022-12-29T13:12:10.961Z,24.40
2022-12-29T13:14:44.399Z,27.63
2022-12-29T13:17:17.623Z,27.47
2022-12-29T13:19:49.497Z,27.27
2022-12-29T13:22:20.650Z,25.60
2022-12-29T13:24:52.109Z,26.73
2022-12-29T13:27:25.598Z,24.13
2022-12-29T13:29:59.643Z,25.40
2022-12-29T13:32:33.702Z,27.17
2022-12-29T13:35:06.798Z,26.63
2022-12-29T13:37:36.100Z,22.47
2022-12-29T13:40:05.659Z,26.93
2022-12-29T13:42:36.077Z,24.80
2022-12-29T13:45:05.291Z,32.30
2022-12-29T13:47:35.563Z,29.50
2022-12-29T13:50:04.856Z,28.87
2022-12-29T13:52:37.136Z,30.67
2022-12-29T13:55:20.827Z,25.60
2022-12-29T13:57:54.084Z,25.10
2022-12-29T14:00:22.792Z,26.13
2022-12-29T14:03:03.062Z,26.20
2022-12-29T14:05:31.916Z,27.40
2022-12-29T14:08:00.635Z,31.37
2022-12-29T14:10:30.806Z,29.27
2022-12-29T14:13:04.744Z,29.27
2022-12-29T14:15:32.632Z,33.57
2022-12-29T14:18:14.839Z,31.63
2022-12-29T14:20:49.062Z,36.27
2022-12-29T14:23:28.531Z,30.47
2022-12-29T14:26:01.129Z,38.00
2022-12-29T14:28:30.889Z,35.90
2022-12-29T14:30:58.981Z,37.17
2022-12-29T14:33:28.163Z,33.67
2022-12-29T14:35:56.611Z,30.87
2022-12-29T14:38:25.922Z,29.83
2022-12-29T14:40:54.034Z,23.23
2022-12-29T14:43:31.925Z,24.70
2022-12-29T14:46:01.335Z,24.67
2022-12-29T14:48:33.673Z,26.10
2022-12-29T14:51:01.638Z,28.60
2022-12-29T14:53:46.243Z,22.63
2022-12-29T14:56:14.660Z,24.17
2022-12-29T14:58:46.795Z,27.47
2022-12-29T15:01:22.927Z,30.33
2022-12-29T15:03:52.204Z,29.93
2022-12-29T15:06:23.358Z,28.93
2022-12-29T15:08:53.091Z,30.43
2022-12-29T15:11:22.365Z,31.70
2022-12-29T15:13:51.591Z,37.83
2022-12-29T15:16:26.304Z,30.53
2022-12-29T15:18:54.312Z,26.77
2022-12-29T15:21:25.392Z,31.17
2022-12-29T15:23:53.153Z,35.20
2022-12-29T15:26:23.852Z,29.27
2022-12-29T15:28:53.864Z,29.23
2022-12-29T15:31:29.706Z,30.57
2022-12-29T15:34:04.976Z,35.43
2022-12-29T15:36:38.957Z,42.23
2022-12-29T15:39:20.166Z,33.57
2022-12-29T15:42:09.981Z,36.27
2022-12-29T15:44:40.285Z,34.00
2022-12-29T15:47:09.041Z,32.77
2022-12-29T15:49:37.705Z,32.67
2022-12-29T15:52:08.358Z,33.33
2022-12-29T15:54:36.198Z,37.83
2022-12-29T15:57:03.968Z,40.77
2022-12-29T15:59:32.511Z,44.00
2022-12-29T16:02:05.970Z,43.20
2022-12-29T16:04:54.342Z,44.37
2022-12-29T16:07:27.432Z,39.70
2022-12-29T16:09:58.853Z,69.67
2022-12-29T16:12:28.135Z,54.73
2022-12-29T16:14:57.039Z,45.03
2022-12-29T16:17:28.010Z,54.80
2022-12-29T16:19:57.247Z,60.37
2022-12-29T16:22:28.090Z,59.17
2022-12-29T16:25:02.545Z,36.50
2022-12-29T16:27:38.380Z,41.47
2022-12-29T16:30:08.031Z,35.47
2022-12-29T16:32:37.005Z,32.00
2022-12-29T16:35:11.930Z,35.50
2022-12-29T16:37:40.334Z,33.03
2022-12-29T16:40:27.169Z,37.70
2022-12-29T16:42:57.457Z,37.33
2022-12-29T16:45:43.616Z,36.77
2022-12-29T16:48:20.870Z,40.70
2022-12-29T16:50:48.934Z,31.63
2022-12-29T16:53:21.526Z,40.37
2022-12-29T16:55:49.542Z,35.40
2022-12-29T16:58:20.396Z,35.97
2022-12-29T17:00:48.540Z,36.00
2022-12-29T17:03:16.471Z,38.97
2022-12-29T17:05:45.560Z,43.67
2022-12-29T17:08:23.921Z,38.97
2022-12-29T17:11:06.554Z,41.00
2022-12-29T17:13:34.249Z,38.83
2022-12-29T17:16:01.983Z,38.23
2022-12-29T17:18:29.749Z,43.93
2022-12-29T17:20:58.867Z,40.97
2022-12-29T17:23:26.902Z,38.03
2022-12-29T17:25:55.397Z,46.97
2022-12-29T17:28:24.657Z,57.10
2022-12-29T17:30:53.917Z,67.43
2022-12-29T17:33:22.284Z,61.57
2022-12-29T17:35:55.164Z,64.07
2022-12-29T17:38:27.089Z,68.57
2022-12-29T17:40:54.914Z,62.10
2022-12-29T17:43:22.646Z,57.33
2022-12-29T17:45:52.128Z,44.33
2022-12-29T17:48:20.218Z,50.47
2022-12-29T17:50:49.093Z,47.67
2022-12-29T17:53:20.026Z,45.17
2022-12-29T17:55:49.208Z,43.87
2022-12-29T17:58:18.467Z,44.13
2022-12-29T18:00:46.519Z,46.73
2022-12-29T18:03:16.187Z,45.30
2022-12-29T18:05:43.987Z,48.47
2022-12-29T18:08:12.248Z,47.00
2022-12-29T18:10:40.644Z,45.10
2022-12-29T18:13:16.028Z,47.00
2022-12-29T18:15:43.807Z,45.63
2022-12-29T18:18:12.753Z,45.43
2022-12-29T18:20:41.230Z,44.23
2022-12-29T18:23:16.173Z,45.73
2022-12-29T18:25:45.164Z,45.87
2022-12-29T18:28:14.317Z,42.80
2022-12-29T18:30:42.109Z,47.50
2022-12-29T18:33:10.737Z,50.93
2022-12-29T18:35:40.308Z,49.30
2022-12-29T18:38:08.038Z,37.00
2022-12-29T18:40:35.948Z,43.47
2022-12-29T18:43:03.774Z,45.03
2022-12-29T18:45:33.861Z,40.77
2022-12-29T18:48:01.592Z,45.30
2022-12-29T18:50:29.226Z,46.37
2022-12-29T18:53:01.726Z,43.00
2022-12-29T18:55:31.454Z,46.67
2022-12-29T18:57:59.366Z,49.87
2022-12-29T19:00:27.029Z,49.50
2022-12-29T19:02:56.114Z,49.27
2022-12-29T19:05:24.703Z,46.23
2022-12-29T19:07:52.822Z,48.27
2022-12-29T19:10:21.147Z,56.97
2022-12-29T19:12:49.063Z,42.07
2022-12-29T19:15:21.032Z,34.60
2022-12-29T19:18:24.041Z,35.43
2022-12-29T19:20:49.200Z,58.37
2022-12-29T19:23:19.519Z,52.53
2022-12-29T19:25:47.628Z,59.63
2022-12-29T19:28:17.955Z,47.07
2022-12-29T19:30:49.661Z,47.77
2022-12-29T19:33:19.888Z,54.53
2022-12-29T19:35:49.186Z,75.97
2022-12-29T19:38:17.115Z,72.93
2022-12-29T19:40:46.452Z,48.57
2022-12-29T19:43:14.347Z,47.80
2022-12-29T19:45:42.520Z,42.07
2022-12-29T19:48:13.366Z,49.47
2022-12-29T19:50:42.670Z,49.43
2022-12-29T19:53:11.994Z,53.63
2022-12-29T19:55:42.561Z,54.07
2022-12-29T19:58:10.237Z,41.40
2022-12-29T20:00:39.966Z,35.43
2022-12-29T20:03:07.967Z,42.30
2022-12-29T20:05:35.735Z,46.97
2022-12-29T20:08:03.400Z,48.50
2022-12-29T20:10:32.530Z,53.77
2022-12-29T20:13:00.427Z,45.07
2022-12-29T20:15:28.084Z,43.83
2022-12-29T20:18:13.021Z,45.40
2022-12-29T20:20:42.064Z,56.13
2022-12-29T20:23:09.799Z,47.80
2022-12-29T20:25:53.883Z,50.67
2022-12-29T20:28:22.090Z,50.90
2022-12-29T20:30:55.174Z,51.00
2022-12-29T20:33:22.930Z,39.80
2022-12-29T20:35:50.733Z,51.80
2022-12-29T20:38:18.763Z,49.93
2022-12-29T20:40:47.800Z,47.73
2022-12-29T20:43:16.227Z,48.37
2022-12-29T20:45:44.038Z,43.13
2022-12-29T20:48:11.853Z,43.87
2022-12-29T20:50:39.569Z,53.50
2022-12-29T20:53:07.292Z,45.83
2022-12-29T20:55:35.690Z,46.00
2022-12-29T21:00:52.551Z,56.00
2022-12-29T21:03:20.259Z,51.10
2022-12-29T21:05:48.036Z,49.23
2022-12-29T21:08:15.794Z,64.43
2022-12-29T21:10:47.546Z,57.63
2022-12-29T21:13:16.704Z,58.07
2022-12-29T21:15:44.418Z,57.93
2022-12-29T21:18:13.727Z,48.27
2022-12-29T21:20:41.404Z,58.10
2022-12-29T21:23:09.123Z,51.37
2022-12-29T21:25:38.151Z,58.40
2022-12-29T21:28:09.265Z,58.60
2022-12-29T21:30:38.378Z,48.17
2022-12-29T21:33:06.543Z,58.17
2022-12-29T21:35:36.093Z,52.07
2022-12-29T21:38:03.695Z,60.83
2022-12-29T21:40:31.314Z,54.67
2022-12-29T21:42:59.056Z,54.20
2022-12-29T21:45:25.879Z,48.57
2022-12-29T21:48:13.169Z,47.47
2022-12-29T21:51:02.339Z,50.33
2022-12-29T21:53:45.874Z,40.03
2022-12-29T21:56:14.620Z,35.00
2022-12-29T21:59:00.471Z,38.97
2022-12-29T22:01:47.040Z,42.40
2022-12-29T22:04:34.264Z,42.17
2022-12-29T22:07:19.587Z,49.60
2022-12-29T22:10:04.791Z,45.70
2022-12-29T22:12:50.712Z,48.63
2022-12-29T22:15:18.718Z,50.67
2022-12-29T22:17:49.027Z,48.20
2022-12-29T22:20:18.728Z,51.83
2022-12-29T22:22:46.434Z,49.77
2022-12-29T22:25:14.106Z,52.03
2022-12-29T22:27:41.765Z,50.23
2022-12-29T22:30:09.919Z,52.43
2022-12-29T22:32:37.579Z,56.07
2022-12-29T22:35:07.997Z,53.33
2022-12-29T22:37:38.614Z,52.80
2022-12-29T22:40:06.929Z,48.23
2022-12-29T22:42:34.535Z,44.00
2022-12-29T22:45:02.227Z,47.57
2022-12-29T22:47:29.911Z,42.70
2022-12-29T22:49:57.523Z,41.07
2022-12-29T22:52:25.153Z,45.73
2022-12-29T22:54:54.852Z,48.60
2022-12-29T22:57:22.692Z,49.57
2022-12-29T22:59:50.295Z,50.20
2022-12-29T23:02:18.271Z,49.93
2022-12-29T23:05:02.941Z,46.77
2022-12-29T23:07:31.075Z,49.40
2022-12-29T23:10:00.051Z,50.47
2022-12-29T23:12:30.320Z,49.53
2022-12-29T23:14:58.034Z,44.33
2022-12-29T23:17:26.248Z,45.33
2022-12-29T23:19:54.230Z,48.90
2022-12-29T23:22:23.138Z,44.33
2022-12-29T23:24:50.863Z,45.00
2022-12-29T23:27:19.904Z,43.03
2022-12-29T23:29:47.609Z,43.20
2022-12-29T23:32:15.656Z,43.73
2022-12-29T23:34:43.255Z,40.10
2022-12-29T23:37:10.991Z,43.70
2022-12-29T23:39:38.656Z,40.27
2022-12-29T23:42:06.326Z,39.23
2022-12-29T23:44:35.559Z,37.27
2022-12-29T23:47:03.303Z,37.00
2022-12-29T23:49:31.185Z,37.83
2022-12-29T23:51:58.834Z,38.33
2022-12-29T23:54:26.566Z,34.70
2022-12-29T23:56:54.219Z,38.27
2022-12-29T23:59:21.950Z,38.43
